Weather at Kuching International Airport

Public forecast

Using degrees Celsius for public forecast. Weather courtesy of forecast.io.

Current aviation weather report (METAR) for Kuching International Airport

Retrieved 2022/06/30 04:00 UTC (21 minutes ago):

WBGG 300400Z 14007KT 090V190 9999 SCT018 30/25 Q1007 NOSIG

Aviation forecast (TAF) for Kuching International Airport

Retrieved 2022-06-30 00:09 UTC (4 hours ago):

TAF WBGG 292300Z 3000/0100 15005KT 9999 FEW020